createdAt,value
2023-04-26T00:00:30.971Z,25.00
2023-04-26T00:03:13.743Z,21.90
2023-04-26T00:05:42.952Z,20.50
2023-04-26T00:08:11.363Z,21.00
2023-04-26T00:10:40.973Z,23.50
2023-04-26T00:13:09.255Z,20.50
2023-04-26T00:15:37.740Z,19.50
2023-04-26T00:18:06.579Z,30.30
2023-04-26T00:20:35.228Z,22.40
2023-04-26T00:23:03.716Z,22.90
2023-04-26T00:25:32.017Z,22.10
2023-04-26T00:28:00.395Z,19.00
2023-04-26T00:30:29.370Z,18.10
2023-04-26T00:32:57.800Z,24.60
2023-04-26T00:35:26.162Z,19.80
2023-04-26T00:37:54.737Z,20.70
2023-04-26T00:40:23.240Z,17.50
2023-04-26T00:43:00.609Z,29.80
2023-04-26T00:45:29.446Z,21.70
2023-04-26T00:48:02.747Z,23.00
2023-04-26T00:50:32.935Z,21.70
2023-04-26T00:53:03.036Z,19.60
2023-04-26T00:55:31.780Z,35.10
2023-04-26T00:58:00.448Z,27.30
2023-04-26T01:00:29.853Z,23.60
2023-04-26T01:02:59.351Z,17.20
2023-04-26T01:05:27.945Z,24.00
2023-04-26T01:07:56.657Z,20.80
2023-04-26T01:10:25.953Z,24.30
2023-04-26T01:12:55.068Z,21.60
2023-04-26T01:15:23.839Z,28.70
2023-04-26T01:17:52.664Z,18.50
2023-04-26T01:20:21.329Z,24.60
2023-04-26T01:22:49.708Z,21.50
2023-04-26T01:25:19.383Z,28.00
2023-04-26T01:27:47.705Z,19.30
2023-04-26T01:30:16.197Z,23.00
2023-04-26T01:32:44.601Z,26.40
2023-04-26T01:35:13.061Z,21.90
2023-04-26T01:37:41.649Z,20.80
2023-04-26T01:40:11.468Z,25.00
2023-04-26T01:42:39.957Z,25.90
2023-04-26T01:45:08.636Z,19.20
2023-04-26T01:47:58.266Z,27.40
2023-04-26T01:50:27.220Z,23.10
2023-04-26T01:52:55.594Z,24.80
2023-04-26T01:55:24.082Z,30.20
2023-04-26T01:57:52.496Z,28.20
2023-04-26T02:00:20.751Z,31.80
2023-04-26T02:02:51.108Z,30.00
2023-04-26T02:05:19.757Z,29.40
2023-04-26T02:07:48.378Z,33.10
2023-04-26T02:10:16.947Z,31.80
2023-04-26T02:12:46.561Z,31.90
2023-04-26T02:15:15.406Z,34.10
2023-04-26T02:17:44.173Z,31.60
2023-04-26T02:20:13.072Z,32.80
2023-04-26T02:22:41.541Z,34.40
2023-04-26T02:25:10.224Z,28.80
2023-04-26T02:27:38.922Z,29.10
2023-04-26T02:30:08.260Z,38.90
2023-04-26T02:32:36.973Z,28.70
2023-04-26T02:35:05.963Z,26.10
2023-04-26T02:37:34.707Z,24.80
2023-04-26T02:40:05.618Z,26.80
2023-04-26T02:42:33.827Z,40.80
2023-04-26T02:45:02.131Z,32.20
2023-04-26T02:47:31.464Z,37.70
2023-04-26T02:50:00.205Z,31.20
2023-04-26T02:52:28.695Z,27.80
2023-04-26T02:54:56.874Z,33.40
2023-04-26T02:57:25.075Z,28.50
2023-04-26T02:59:53.540Z,31.50
2023-04-26T03:02:22.467Z,26.90
2023-04-26T03:04:51.551Z,28.80
2023-04-26T03:07:19.920Z,25.70
2023-04-26T03:09:48.408Z,35.90
2023-04-26T03:12:18.840Z,32.60
2023-04-26T03:14:47.635Z,34.20
2023-04-26T03:17:15.918Z,34.40
2023-04-26T03:19:44.364Z,32.20
2023-04-26T03:22:16.486Z,33.10
2023-04-26T03:24:45.986Z,36.70
2023-04-26T03:27:15.099Z,38.30
2023-04-26T03:29:44.332Z,32.40
2023-04-26T03:32:13.028Z,32.30
2023-04-26T03:34:41.772Z,33.00
2023-04-26T03:37:10.479Z,51.20
2023-04-26T03:39:40.285Z,30.60
2023-04-26T03:42:09.180Z,37.00
2023-04-26T03:44:38.386Z,27.00
2023-04-26T03:47:07.224Z,18.10
2023-04-26T03:49:35.767Z,5.40
2023-04-26T03:52:04.355Z,8.90
2023-04-26T03:54:32.738Z,2.70
2023-04-26T03:57:01.945Z,2.30
2023-04-26T03:59:31.039Z,4.20
2023-04-26T04:01:59.634Z,4.50
2023-04-26T04:04:28.356Z,1.90
2023-04-26T04:06:56.926Z,1.10
2023-04-26T04:09:25.436Z,3.60
2023-04-26T04:11:55.726Z,0.80
2023-04-26T04:14:24.517Z,1.90
2023-04-26T04:16:52.829Z,0.70
2023-04-26T04:19:26.457Z,1.90
2023-04-26T04:21:57.352Z,0.50
2023-04-26T04:24:26.558Z,1.10
2023-04-26T04:26:56.277Z,1.30
2023-04-26T04:29:25.142Z,1.40
2023-04-26T04:31:53.449Z,2.00
2023-04-26T04:34:24.026Z,2.20
2023-04-26T04:36:52.463Z,3.50
2023-04-26T04:39:21.355Z,1.10
2023-04-26T04:41:50.161Z,1.10
2023-04-26T04:44:20.889Z,1.50
2023-04-26T04:46:49.614Z,4.90
2023-04-26T04:49:19.047Z,1.20
2023-04-26T04:51:47.224Z,0.80
2023-04-26T04:54:18.178Z,1.10
2023-04-26T04:56:48.559Z,1.20
2023-04-26T04:59:17.724Z,2.00
2023-04-26T05:01:46.178Z,2.60
2023-04-26T05:04:16.435Z,5.10
2023-04-26T05:06:45.676Z,2.60
2023-04-26T05:09:14.151Z,1.60
2023-04-26T05:11:42.953Z,1.60
2023-04-26T05:14:14.148Z,0.70
2023-04-26T05:16:43.362Z,0.60
2023-04-26T05:19:13.534Z,0.90
2023-04-26T05:21:42.424Z,1.10
2023-04-26T05:24:11.424Z,2.40
2023-04-26T05:26:40.639Z,1.20
2023-04-26T05:29:22.112Z,1.00
2023-04-26T05:32:02.923Z,1.10
2023-04-26T05:34:44.486Z,1.80
2023-04-26T05:37:17.451Z,0.80
2023-04-26T05:39:46.044Z,1.60
2023-04-26T05:42:16.352Z,2.80
2023-04-26T05:44:46.699Z,1.00
2023-04-26T05:47:15.282Z,1.10
2023-04-26T05:49:43.771Z,6.80
2023-04-26T05:52:12.990Z,4.70
2023-04-26T05:54:41.565Z,1.30
2023-04-26T05:57:09.796Z,1.00
2023-04-26T05:59:40.342Z,2.20
2023-04-26T06:02:08.864Z,2.90
2023-04-26T06:04:37.788Z,1.50
2023-04-26T06:07:10.049Z,3.70
2023-04-26T06:09:38.418Z,0.60
2023-04-26T06:12:07.318Z,0.90
2023-04-26T06:14:37.233Z,3.10
2023-04-26T06:17:09.857Z,1.60
2023-04-26T06:19:38.360Z,4.00
2023-04-26T06:22:06.895Z,0.60
2023-04-26T06:24:35.481Z,1.20
2023-04-26T06:27:04.250Z,2.10
2023-04-26T06:29:33.878Z,3.10
2023-04-26T06:32:02.586Z,7.30
2023-04-26T06:34:31.783Z,3.80
2023-04-26T06:37:00.790Z,4.80
2023-04-26T06:39:29.527Z,3.60
2023-04-26T06:41:58.099Z,1.40
2023-04-26T06:44:29.621Z,5.00
2023-04-26T06:47:03.844Z,2.40
2023-04-26T06:49:33.549Z,7.00
2023-04-26T06:52:01.832Z,4.30
2023-04-26T06:54:31.426Z,4.90
2023-04-26T06:57:01.344Z,5.50
2023-04-26T06:59:30.160Z,2.30
2023-04-26T07:01:58.855Z,2.70
2023-04-26T07:04:27.684Z,4.70
2023-04-26T07:06:58.080Z,2.30
2023-04-26T07:09:26.365Z,4.70
2023-04-26T07:11:54.539Z,5.30
2023-04-26T07:14:23.678Z,13.80
2023-04-26T07:16:52.061Z,1.50
2023-04-26T07:19:20.816Z,1.50
2023-04-26T07:21:49.206Z,2.50
2023-04-26T07:24:17.897Z,4.40
2023-04-26T07:26:46.745Z,2.20
2023-04-26T07:29:15.381Z,1.20
2023-04-26T07:31:44.065Z,1.20
2023-04-26T07:34:12.261Z,8.30
2023-04-26T07:36:40.838Z,4.20
2023-04-26T07:39:11.073Z,2.90
2023-04-26T07:41:41.050Z,3.00
2023-04-26T07:44:11.592Z,3.40
2023-04-26T07:46:40.005Z,3.40
2023-04-26T07:49:09.311Z,2.70
2023-04-26T07:51:41.484Z,3.40
2023-04-26T07:54:10.585Z,1.50
2023-04-26T07:56:39.170Z,2.10
2023-04-26T07:59:07.966Z,5.10
2023-04-26T08:01:36.349Z,5.90
2023-04-26T08:04:05.807Z,1.90
2023-04-26T08:06:34.379Z,2.20
2023-04-26T08:09:03.452Z,2.30
2023-04-26T08:11:31.894Z,6.00
2023-04-26T08:14:03.491Z,1.60
2023-04-26T08:16:32.635Z,2.30
2023-04-26T08:19:03.204Z,1.70
2023-04-26T08:21:32.026Z,2.80
2023-04-26T08:24:00.623Z,1.90
2023-04-26T08:26:29.105Z,3.80
2023-04-26T08:28:57.997Z,2.30
2023-04-26T08:31:27.322Z,1.20
2023-04-26T08:33:55.887Z,4.50
2023-04-26T08:36:24.165Z,2.20
2023-04-26T08:38:52.433Z,2.20
2023-04-26T08:41:24.951Z,1.80
2023-04-26T08:43:56.403Z,1.60
2023-04-26T08:46:27.802Z,3.50
2023-04-26T08:49:13.716Z,4.70
2023-04-26T08:51:44.457Z,2.00
2023-04-26T08:54:13.333Z,1.20
2023-04-26T08:56:44.310Z,2.00
2023-04-26T08:59:14.958Z,1.60
2023-04-26T09:01:44.638Z,3.20
2023-04-26T09:04:13.553Z,8.10
2023-04-26T09:06:42.440Z,10.30
2023-04-26T09:09:13.793Z,4.00
2023-04-26T09:11:59.995Z,2.80
2023-04-26T09:14:28.272Z,2.60
2023-04-26T09:16:57.378Z,6.70
2023-04-26T09:19:37.218Z,1.90
2023-04-26T09:22:06.847Z,2.20
2023-04-26T09:24:53.118Z,1.50
2023-04-26T09:27:22.213Z,2.60
2023-04-26T09:30:06.158Z,5.00
2023-04-26T09:33:05.094Z,2.30
2023-04-26T09:35:38.818Z,2.10
2023-04-26T09:38:13.585Z,2.40
2023-04-26T09:40:47.392Z,5.60
2023-04-26T09:43:21.246Z,12.70
2023-04-26T09:45:58.793Z,5.40
2023-04-26T09:48:32.169Z,3.20
2023-04-26T09:51:11.436Z,2.00
2023-04-26T09:53:42.849Z,3.80
2023-04-26T09:56:17.637Z,7.00
2023-04-26T09:58:58.313Z,1.80
2023-04-26T10:01:30.225Z,2.20
2023-04-26T10:04:02.348Z,1.90
2023-04-26T10:06:30.692Z,5.80
2023-04-26T10:08:59.581Z,3.90
2023-04-26T10:11:29.083Z,3.70
2023-04-26T10:13:57.853Z,8.10
2023-04-26T10:16:26.412Z,5.40
2023-04-26T10:18:55.118Z,4.70
2023-04-26T10:21:31.865Z,4.20
2023-04-26T10:24:00.606Z,6.70
2023-04-26T10:26:50.613Z,5.20
2023-04-26T10:29:21.177Z,4.30
2023-04-26T10:32:02.402Z,8.40
2023-04-26T10:34:32.863Z,1.30
2023-04-26T10:37:17.819Z,3.90
2023-04-26T10:39:47.069Z,3.20
2023-04-26T10:42:28.666Z,3.80
2023-04-26T10:44:58.876Z,3.30
2023-04-26T10:47:32.003Z,4.10
2023-04-26T10:50:12.083Z,3.60
2023-04-26T10:53:04.076Z,7.60
2023-04-26T10:55:51.692Z,3.50
2023-04-26T10:58:34.639Z,11.20
2023-04-26T11:01:20.884Z,1.70
2023-04-26T11:03:59.186Z,3.20
2023-04-26T11:06:51.294Z,1.30
2023-04-26T11:09:39.643Z,2.20
2023-04-26T11:12:12.744Z,5.20
2023-04-26T11:14:46.444Z,2.30
2023-04-26T11:17:15.209Z,4.70
2023-04-26T11:19:46.916Z,2.40
2023-04-26T11:22:15.347Z,4.30
2023-04-26T11:24:43.627Z,3.00
2023-04-26T11:27:12.638Z,1.30
2023-04-26T11:29:41.425Z,4.00
2023-04-26T11:32:11.133Z,1.20
2023-04-26T11:34:39.723Z,3.60
2023-04-26T11:37:08.464Z,10.10
2023-04-26T11:39:37.483Z,3.00
2023-04-26T11:42:09.491Z,7.70
2023-04-26T11:44:39.155Z,1.20
2023-04-26T11:47:09.116Z,1.70
2023-04-26T11:49:40.876Z,1.70
2023-04-26T11:52:10.183Z,1.50
2023-04-26T11:54:38.733Z,4.00
2023-04-26T11:57:20.838Z,1.70
2023-04-26T11:59:49.264Z,5.20
2023-04-26T12:02:17.708Z,1.40
2023-04-26T12:04:46.813Z,2.40
2023-04-26T12:07:19.742Z,4.10
2023-04-26T12:09:47.990Z,3.30
2023-04-26T12:12:16.504Z,1.30
2023-04-26T12:14:47.554Z,3.50
2023-04-26T12:17:16.820Z,4.30
2023-04-26T12:19:45.028Z,2.60
2023-04-26T12:22:22.119Z,5.50
2023-04-26T12:24:50.394Z,3.40
2023-04-26T12:27:22.119Z,2.80
2023-04-26T12:29:50.848Z,8.10
2023-04-26T12:32:20.772Z,7.60
2023-04-26T12:34:51.509Z,5.00
2023-04-26T12:37:19.991Z,0.60
2023-04-26T12:39:48.272Z,4.10
2023-04-26T12:42:16.969Z,1.40
2023-04-26T12:44:45.356Z,0.60
2023-04-26T12:47:14.349Z,2.60
2023-04-26T12:49:42.737Z,2.10
2023-04-26T12:52:11.322Z,0.70
2023-04-26T12:54:39.538Z,2.30
2023-04-26T12:57:08.396Z,0.50
2023-04-26T12:59:36.887Z,1.20
2023-04-26T13:02:05.070Z,1.90
2023-04-26T13:04:36.225Z,1.60
2023-04-26T13:07:06.746Z,0.60
2023-04-26T13:09:35.341Z,0.60
2023-04-26T13:12:04.216Z,1.90
2023-04-26T13:14:32.424Z,2.20
2023-04-26T13:17:01.132Z,1.00
2023-04-26T13:19:29.793Z,0.60
2023-04-26T13:21:57.983Z,2.90
2023-04-26T13:24:26.565Z,2.90
2023-04-26T13:26:55.665Z,5.10
2023-04-26T13:29:24.324Z,10.30
2023-04-26T13:31:52.954Z,6.60
2023-04-26T13:34:22.159Z,0.60
2023-04-26T13:36:50.880Z,1.10
2023-04-26T13:39:19.838Z,4.20
2023-04-26T13:41:48.128Z,1.80
2023-04-26T13:44:16.611Z,0.80
2023-04-26T13:46:45.272Z,2.00
2023-04-26T13:49:14.809Z,2.50
2023-04-26T13:51:43.499Z,4.30
2023-04-26T13:54:12.104Z,4.90
2023-04-26T13:56:40.781Z,2.50
2023-04-26T13:59:08.957Z,4.30
2023-04-26T14:01:37.390Z,7.40
2023-04-26T14:04:06.449Z,8.00
2023-04-26T14:06:37.387Z,6.20
2023-04-26T14:09:05.851Z,21.00
2023-04-26T14:11:34.176Z,13.70
2023-04-26T14:14:02.453Z,9.90
2023-04-26T14:16:31.084Z,9.50
2023-04-26T14:18:59.932Z,12.00
2023-04-26T14:21:28.324Z,1.30
2023-04-26T14:23:56.801Z,2.40
2023-04-26T14:26:26.613Z,3.20
2023-04-26T14:28:57.047Z,6.00
2023-04-26T14:31:26.604Z,3.90
2023-04-26T14:33:56.578Z,2.30
2023-04-26T14:36:24.858Z,1.80
2023-04-26T14:38:53.247Z,0.70
2023-04-26T14:41:21.938Z,0.30
2023-04-26T14:43:51.038Z,2.80
2023-04-26T14:46:19.913Z,4.70
2023-04-26T14:48:48.428Z,0.60
2023-04-26T14:51:17.009Z,2.40
2023-04-26T14:53:45.312Z,1.70
2023-04-26T14:56:13.887Z,5.10
2023-04-26T14:58:42.172Z,1.40
2023-04-26T15:01:10.832Z,1.80
2023-04-26T15:03:40.617Z,3.60
2023-04-26T15:06:10.117Z,2.40
2023-04-26T15:08:38.412Z,2.50
2023-04-26T15:11:06.744Z,2.70
2023-04-26T15:13:35.024Z,1.70
2023-04-26T15:16:08.156Z,3.00
2023-04-26T15:18:36.736Z,7.80
2023-04-26T15:21:05.000Z,2.20
2023-04-26T15:23:33.290Z,3.60
2023-04-26T15:26:04.009Z,1.60
2023-04-26T15:28:33.207Z,2.40
2023-04-26T15:31:03.483Z,1.70
2023-04-26T15:33:31.923Z,1.10
2023-04-26T15:36:00.315Z,0.50
2023-04-26T15:38:28.500Z,7.30
2023-04-26T15:40:56.904Z,1.60
2023-04-26T15:43:30.910Z,6.40
2023-04-26T15:45:59.424Z,3.30
2023-04-26T15:48:27.966Z,1.80
2023-04-26T15:50:57.025Z,0.80
2023-04-26T15:53:25.862Z,1.90
2023-04-26T15:55:54.365Z,1.30
2023-04-26T15:58:22.634Z,1.70
2023-04-26T16:00:50.911Z,1.30
2023-04-26T16:03:19.716Z,8.80
2023-04-26T16:05:48.296Z,1.50
2023-04-26T16:08:24.554Z,4.10
2023-04-26T16:11:05.014Z,2.10
2023-04-26T16:13:33.917Z,3.10
2023-04-26T16:16:06.380Z,4.80
2023-04-26T16:18:35.573Z,5.50
2023-04-26T16:21:04.874Z,3.40
2023-04-26T16:23:36.361Z,2.30
2023-04-26T16:26:06.169Z,3.70
2023-04-26T16:28:34.967Z,7.00
2023-04-26T16:31:03.969Z,2.80
2023-04-26T16:33:32.455Z,5.90
2023-04-26T16:36:04.057Z,9.60
2023-04-26T16:38:32.496Z,2.10
2023-04-26T16:41:01.889Z,1.90
2023-04-26T16:43:32.033Z,5.90
2023-04-26T16:46:05.877Z,4.10
2023-04-26T16:48:36.630Z,5.90
2023-04-26T16:51:07.647Z,5.70
2023-04-26T16:53:38.169Z,8.10
2023-04-26T16:56:07.411Z,4.20
2023-04-26T16:58:35.844Z,9.00
2023-04-26T17:01:05.041Z,5.70
2023-04-26T17:03:36.459Z,3.90
2023-04-26T17:06:06.932Z,7.20
2023-04-26T17:08:35.314Z,7.50
2023-04-26T17:11:03.803Z,2.30
2023-04-26T17:13:33.524Z,7.10
2023-04-26T17:16:02.436Z,3.10
2023-04-26T17:18:31.177Z,7.70
2023-04-26T17:21:00.144Z,10.60
2023-04-26T17:23:31.010Z,5.80
2023-04-26T17:25:59.981Z,14.10
2023-04-26T17:28:31.697Z,8.80
2023-04-26T17:31:00.815Z,7.10
2023-04-26T17:33:30.210Z,13.10
2023-04-26T17:35:58.948Z,12.70
2023-04-26T17:38:27.497Z,5.80
2023-04-26T17:40:56.190Z,7.10
2023-04-26T17:43:24.587Z,6.50
2023-04-26T17:45:53.517Z,5.20
2023-04-26T17:48:30.183Z,6.20
2023-04-26T17:50:59.374Z,3.90
2023-04-26T17:53:28.130Z,6.90
2023-04-26T17:55:56.414Z,2.50
2023-04-26T17:58:24.598Z,3.70
2023-04-26T18:00:53.868Z,3.20
2023-04-26T18:03:22.625Z,2.00
2023-04-26T18:05:51.283Z,2.70
2023-04-26T18:08:20.726Z,22.10
2023-04-26T18:10:50.606Z,10.20
2023-04-26T18:13:19.347Z,8.00
2023-04-26T18:15:48.410Z,5.70
2023-04-26T18:18:16.783Z,7.80
2023-04-26T18:20:46.615Z,5.00
2023-04-26T18:23:14.886Z,5.90
2023-04-26T18:25:43.481Z,4.30
2023-04-26T18:28:12.890Z,4.00
2023-04-26T18:30:42.008Z,5.60
2023-04-26T18:33:10.587Z,7.40
2023-04-26T18:35:39.061Z,8.70
2023-04-26T18:38:07.255Z,4.00
2023-04-26T18:40:35.945Z,5.70
2023-04-26T18:43:07.298Z,3.10
2023-04-26T18:45:35.982Z,6.80
2023-04-26T18:48:10.563Z,4.90
2023-04-26T18:50:38.784Z,5.30
2023-04-26T18:53:07.270Z,5.10
2023-04-26T18:55:35.450Z,4.40
2023-04-26T18:58:03.736Z,2.70
2023-04-26T19:00:32.696Z,4.60
2023-04-26T19:03:01.100Z,5.60
2023-04-26T19:05:29.720Z,9.60
2023-04-26T19:07:58.189Z,4.10
2023-04-26T19:10:26.986Z,6.40
2023-04-26T19:12:55.196Z,4.10
2023-04-26T19:15:23.449Z,2.90
2023-04-26T19:17:54.616Z,2.90
2023-04-26T19:20:24.005Z,4.40
2023-04-26T19:22:52.697Z,7.00
2023-04-26T19:25:23.441Z,4.40
2023-04-26T19:27:52.562Z,9.40
2023-04-26T19:30:24.810Z,4.90
2023-04-26T19:32:57.442Z,10.50
2023-04-26T19:35:28.949Z,6.80
2023-04-26T19:38:00.005Z,4.90
2023-04-26T19:40:28.582Z,8.10
2023-04-26T19:42:57.592Z,5.40
2023-04-26T19:45:29.548Z,6.50
2023-04-26T19:47:57.971Z,9.10
2023-04-26T19:50:26.525Z,10.90
2023-04-26T19:52:54.903Z,6.40
2023-04-26T19:55:23.627Z,7.80
2023-04-26T19:57:52.388Z,8.40
2023-04-26T20:00:20.884Z,7.60
2023-04-26T20:02:49.998Z,4.70
2023-04-26T20:05:18.577Z,8.00
2023-04-26T20:07:46.948Z,5.50
2023-04-26T20:10:15.867Z,7.10
2023-04-26T20:12:44.439Z,8.60
2023-04-26T20:15:15.192Z,8.00
2023-04-26T20:17:44.400Z,11.10
2023-04-26T20:20:12.887Z,7.10
2023-04-26T20:22:41.910Z,4.80
2023-04-26T20:25:10.857Z,9.20
2023-04-26T20:27:39.344Z,6.00
2023-04-26T20:30:09.307Z,16.20
2023-04-26T20:32:37.823Z,6.20
2023-04-26T20:35:07.181Z,7.10
2023-04-26T20:37:36.161Z,5.70
2023-04-26T20:40:05.218Z,9.00
2023-04-26T20:42:33.546Z,5.70
2023-04-26T20:45:03.941Z,7.40
2023-04-26T20:47:32.689Z,6.40
2023-04-26T20:50:01.357Z,13.30
2023-04-26T20:52:29.535Z,9.20
2023-04-26T20:54:57.959Z,8.70
2023-04-26T20:57:26.523Z,5.20
2023-04-26T20:59:54.894Z,4.90
2023-04-26T21:02:23.405Z,6.40
2023-04-26T21:04:52.344Z,5.60
2023-04-26T21:07:20.864Z,10.60
2023-04-26T21:09:51.805Z,8.50
2023-04-26T21:12:21.593Z,7.10
2023-04-26T21:14:50.418Z,19.60
2023-04-26T21:17:19.054Z,12.70
2023-04-26T21:19:47.601Z,6.40
2023-04-26T21:22:16.107Z,7.90
2023-04-26T21:24:44.469Z,6.40
2023-04-26T21:27:12.648Z,11.10
2023-04-26T21:29:41.365Z,5.80
2023-04-26T21:32:09.754Z,9.80
2023-04-26T21:34:38.214Z,7.30
2023-04-26T21:37:06.922Z,8.40
2023-04-26T21:39:35.497Z,7.40
2023-04-26T21:42:03.890Z,11.90
2023-04-26T21:44:32.368Z,10.50
2023-04-26T21:47:01.304Z,6.00
2023-04-26T21:49:29.953Z,12.00
2023-04-26T21:51:58.232Z,6.00
2023-04-26T21:54:26.512Z,7.00
2023-04-26T21:56:54.697Z,11.10
2023-04-26T21:59:23.080Z,6.10
2023-04-26T22:01:51.253Z,10.60
2023-04-26T22:04:19.753Z,6.40
2023-04-26T22:06:48.337Z,8.90
2023-04-26T22:09:17.086Z,7.50
2023-04-26T22:11:45.821Z,7.20
2023-04-26T22:14:14.304Z,6.80
2023-04-26T22:16:43.238Z,11.90
2023-04-26T22:19:11.956Z,6.50
2023-04-26T22:21:40.901Z,10.70
2023-04-26T22:24:09.282Z,8.90
2023-04-26T22:26:37.459Z,10.00
2023-04-26T22:29:05.849Z,5.50
2023-04-26T22:31:34.785Z,8.60
2023-04-26T22:34:03.223Z,7.40
2023-04-26T22:36:31.608Z,8.10
2023-04-26T22:38:59.791Z,8.50
2023-04-26T22:41:27.972Z,12.70
2023-04-26T22:43:57.105Z,9.50
2023-04-26T22:46:26.008Z,24.30
2023-04-26T22:48:54.663Z,17.60
2023-04-26T22:51:23.144Z,15.40
2023-04-26T22:53:51.534Z,11.60
2023-04-26T22:56:20.016Z,11.40
2023-04-26T22:58:48.707Z,12.60
2023-04-26T23:01:17.138Z,9.80
2023-04-26T23:03:45.391Z,11.30
2023-04-26T23:06:13.657Z,9.90
2023-04-26T23:08:42.041Z,11.30
2023-04-26T23:11:10.834Z,8.20
2023-04-26T23:13:39.321Z,7.30
2023-04-26T23:16:08.735Z,15.20
2023-04-26T23:18:37.426Z,7.80
2023-04-26T23:21:05.805Z,6.80
2023-04-26T23:23:34.195Z,14.70
2023-04-26T23:26:08.156Z,11.00
2023-04-26T23:28:36.995Z,10.90
2023-04-26T23:31:06.520Z,9.00
2023-04-26T23:33:34.995Z,8.80
2023-04-26T23:36:03.420Z,14.00
2023-04-26T23:38:31.769Z,11.40
2023-04-26T23:40:59.940Z,10.10
2023-04-26T23:43:28.327Z,7.50
2023-04-26T23:45:57.253Z,8.80
2023-04-26T23:48:26.126Z,8.70
2023-04-26T23:50:54.403Z,11.40
2023-04-26T23:53:22.683Z,8.60
2023-04-26T23:55:51.375Z,11.90
2023-04-26T23:58:19.557Z,13.30
